Flight Track Log - Related Links

Times and Time Zones

All times are in EST time to prevent confusion due to time zone crossing. See the SWA1245 flight status page for this flight to view local times or setup timezone preferences in your user account.

Time Position Orientation Groundspeed Altitude Reporting Facility
EST Latitude Longitude Course Direction KTS MPH feet Rate Location/Type
Sun 02:40:36 AM 36.1325 -115.0803 75° East 237 273 6,000  Level Los Angeles Center
Sun 02:41:05 AM 36.1361 -115.0422 83° East 234 269 7,000 2,467 Climbing Los Angeles Center
Sun 02:42:06 AM 36.1467 -114.9439 82° East 288 331 9,700 2,083 Climbing Los Angeles Center
Sun 02:43:06 AM 36.1569 -114.8303 84° East 326 375 11,200 2,479 Climbing Los Angeles Center
Sun 02:44:07 AM 36.1856 -114.7200 72° East 336 387 14,700 2,479 Climbing Los Angeles Center
Sun 02:45:07 AM 36.2639 -114.6592 32° Northeast 338 389 16,200 1,537 Climbing Los Angeles Center
Sun 02:46:08 AM 36.3494 -114.5919 32° Northeast 361 415 17,800 1,820 Climbing Los Angeles Center
Sun 02:47:09 AM 36.4392 -114.5225 32° Northeast 376 433 19,900 2,132 Climbing Los Angeles Center
Sun 02:48:09 AM 36.5311 -114.4528 31° Northeast 385 443 22,100 2,083 Climbing Los Angeles Center
Sun 02:49:10 AM 36.6233 -114.3836 31° Northeast 387 445 24,100 1,339 Climbing Los Angeles Center
Sun 02:50:10 AM 36.7247 -114.3319 22° Northeast 406 467 24,800 1,388 Climbing Los Angeles Center
Sun 02:51:11 AM 36.8306 -114.3581 349° North 392 451 26,900 1,770 Climbing Los Angeles Center
Sun 02:52:12 AM 36.9328 -114.3833 349° North 379 436 28,400 1,537 Climbing Los Angeles Center
Sun 02:53:12 AM 37.0372 -114.4106 348° North 381 438 30,000 1,736 Climbing Los Angeles Center
Sun 02:54:13 AM 37.1386 -114.4358 349° North 377 434 31,900 1,587 Climbing Los Angeles Center
Sun 02:55:13 AM 37.2358 -114.4617 348° North 366 421 33,200 1,091 Climbing Los Angeles Center
Sun 02:56:14 AM 37.3314 -114.4839 350° North 360 414 34,100 1,091 Climbing Los Angeles Center
Sun 02:57:14 AM 37.4300 -114.5094 348° North 359 413 35,400 857 Climbing Los Angeles Center
Sun 02:58:27 AM 37.5269 -114.5350 348° North 358 412 36,000 269 Climbing Los Angeles Center
Sun 02:59:28 AM 37.6428 -114.5628 349° North 355 409 36,000  Level Los Angeles Center
Sun 03:00:28 AM 37.7583 -114.5933 348° North 354 407 36,000  Level Los Angeles Center
Sun 03:01:29 AM 37.8561 -114.6175 349° North 355 409 36,000  Level Los Angeles Center
Sun 03:02:21 AM 37.9289 -114.6389 347° North 355 409 36,000  Level Salt Lake Center
Sun 03:03:21 AM 38.0258 -114.6644 348° North 355 409 36,000  Level Salt Lake Center
Sun 03:04:22 AM 38.1233 -114.6900 348° North 356 410 36,000  Level Salt Lake Center
Sun 03:05:22 AM 38.2200 -114.7150 349° North 355 409 36,000  Level Salt Lake Center
Sun 03:06:23 AM 38.3175 -114.7408 348° North 356 410 36,000  Level Salt Lake Center
Sun 03:07:23 AM 38.4153 -114.7664 348° North 357 411 36,000  Level Salt Lake Center
Sun 03:08:24 AM 38.5128 -114.7897 349° North 357 411 36,000  Level Salt Lake Center
Sun 03:09:24 AM 38.6092 -114.8142 349° North 354 407 36,000  Level Salt Lake Center
Sun 03:10:25 AM 38.7056 -114.8389 349° North 353 406 36,000  Level Salt Lake Center
Sun 03:11:25 AM 38.8014 -114.8642 348° North 352 405 36,000  Level Salt Lake Center
Sun 03:12:26 AM 38.8967 -114.8894 348° North 351 404 36,000  Level Salt Lake Center
Sun 03:13:26 AM 38.9922 -114.9158 348° North 351 404 36,000  Level Salt Lake Center
Sun 03:14:27 AM 39.0869 -114.9408 348° North 350 403 36,000  Level Salt Lake Center
Sun 03:15:27 AM 39.1833 -114.9703 347° North 346 398 36,000  Level Salt Lake Center
Sun 03:16:28 AM 39.2886 -114.9986 348° North 344 396 36,000  Level Salt Lake Center
Sun 03:17:28 AM 39.3797 -115.0206 349° North 346 398 36,000  Level Salt Lake Center
Sun 03:18:28 AM 39.4714 -115.0433 349° North 349 402 36,000  Level Salt Lake Center
Sun 03:19:29 AM 39.5611 -115.0672 348° North 345 397 36,000  Level Salt Lake Center
Sun 03:20:29 AM 39.6658 -115.0956 348° North 344 396 36,000  Level Salt Lake Center
Sun 03:21:30 AM 39.7547 -115.1197 348° North 342 394 36,000  Level Salt Lake Center
Sun 03:22:30 AM 39.8433 -115.1436 348° North 341 392 36,000  Level Salt Lake Center
Sun 03:23:31 AM 39.9447 -115.1725 348° North 335 386 36,000  Level Salt Lake Center
Sun 03:24:31 AM 40.0336 -115.1964 348° North 338 389 36,000  Level Salt Lake Center
Sun 03:25:32 AM 40.1222 -115.2203 348° North 339 390 36,000  Level Salt Lake Center
Sun 03:26:32 AM 40.2242 -115.2492 348° North 338 389 36,000  Level Salt Lake Center
Sun 03:27:33 AM 40.3128 -115.2736 348° North 339 390 36,000  Level Salt Lake Center
Sun 03:28:33 AM 40.4025 -115.2986 348° North 341 392 36,000  Level Salt Lake Center
Sun 03:29:33 AM 40.4872 -115.3239 347° North 338 389 36,000  Level Salt Lake Center
Sun 03:30:34 AM 40.5875 -115.3508 348° North 331 381 36,000  Level Salt Lake Center
Sun 03:31:34 AM 40.6764 -115.3758 348° North 339 390 36,000  Level Salt Lake Center
Sun 03:32:35 AM 40.7631 -115.3994 348° North 336 387 36,000  Level Salt Lake Center
Sun 03:33:35 AM 40.8658 -115.4292 348° North 339 390 36,000  Level Salt Lake Center
Sun 03:34:36 AM 40.9536 -115.4528 349° North 336 387 36,000  Level Salt Lake Center
Sun 03:35:36 AM 41.0417 -115.4775 348° North 338 389 36,000  Level Salt Lake Center
Sun 03:36:36 AM 41.1414 -115.5061 348° North 333 383 36,000  Level Salt Lake Center
Sun 03:37:37 AM 41.2272 -115.5308 348° North 330 380 36,000  Level Salt Lake Center
Sun 03:38:37 AM 41.3139 -115.5556 348° North 332 382 36,000  Level Salt Lake Center
Sun 03:39:38 AM 41.4022 -115.5797 348° North 336 387 36,000  Level Salt Lake Center
Sun 03:40:38 AM 41.5039 -115.6106 347° North 336 387 36,000  Level Salt Lake Center
Sun 03:41:38 AM 41.5911 -115.6339 349° North 334 384 36,000  Level Salt Lake Center
Sun 03:42:39 AM 41.6781 -115.6594 348° North 335 386 36,000  Level Salt Lake Center
Sun 03:43:39 AM 41.7806 -115.6889 348° North 337 388 36,000  Level Salt Lake Center
Sun 03:44:40 AM 41.8686 -115.7153 347° North 337 388 36,000  Level Salt Lake Center
Sun 03:45:40 AM 41.9542 -115.7414 347° North 332 382 36,000  Level Salt Lake Center
Sun 03:46:40 AM 42.0556 -115.7706 348° North 333 383 36,000  Level Salt Lake Center
Sun 03:47:41 AM 42.1403 -115.7947 348° North 330 380 36,000 -446 Level Salt Lake Center
Sun 03:48:41 AM 42.2300 -115.8211 348° North 329 379 35,100 -1,950 Descending Salt Lake Center
Sun 03:49:41 AM 42.3206 -115.8481 348° North 332 382 32,100 -2,628 Descending Salt Lake Center
Sun 03:50:42 AM 42.4100 -115.8742 348° North 330 380 29,800 -2,281 Descending Salt Lake Center
Sun 03:51:42 AM 42.4958 -115.8997 348° North 318 366 27,500 -2,182 Descending Salt Lake Center
Sun 03:52:43 AM 42.5786 -115.9247 347° North 305 351 25,400 -2,033 Descending Salt Lake Center
Sun 03:53:43 AM 42.6572 -115.9478 348° North 291 335 23,400 -2,050 Descending Salt Lake Center
Sun 03:54:43 AM 42.7322 -115.9703 348° North 277 319 21,300 -2,289 Descending Salt Lake Center
Sun 03:55:20 AM 42.7817 -115.9869 346° North 274 315 19,700 -2,372 Descending Salt Lake Center
Sun 03:55:26 AM 42.7883 -115.9875 357° North 274 315 19,600 -1,750 Descending Salt Lake Center
Sun 03:55:44 AM 42.8128 -115.9942 349° North 275 316 19,000 -1,385 Descending Salt Lake Center
Sun 03:56:44 AM 42.8817 -116.0153 347° North 266 306 17,800 -1,587 Descending Salt Lake Center
Sun 03:57:45 AM 42.9572 -116.0375 348° North 266 306 15,800 -1,983 Descending Salt Lake Center
Sun 03:58:45 AM 43.0231 -116.0722 339° North 262 302 13,800 -2,150 Descending Salt Lake Center
Sun 03:59:45 AM 43.0972 -116.1058 342° North 265 305 11,500 -1,835 Descending Salt Lake Center
Sun 04:00:46 AM 43.1636 -116.1394 340° North 265 305 10,100 -1,438 Descending Salt Lake Center
Sun 04:01:46 AM 43.2292 -116.1708 341° North 241 277 8,600 -1,686 Descending Salt Lake Center
Sun 04:02:47 AM 43.2922 -116.1967 343° North 244 281 6,700 -1,488 Descending Salt Lake Center
Sun 04:03:47 AM 43.3589 -116.2253 343° North 240 276 5,600 -900 Descending Salt Lake Center
Sun 04:04:47 AM 43.4150 -116.2506 342° North 226 260 4,900 -545 Descending Salt Lake Center
Sun 04:05:48 AM 43.4733 -116.2756 343° North 212 244 4,500 -198 Descending Salt Lake Center
Sun 04:06:48 AM 43.5156 -116.3003 337° Northwest 179 206 4,500  Level Salt Lake Center
Sun 04:07:49 AM 43.5447 -116.3558 306° West 170 196 4,500 -149 Level Salt Lake Center
Sun 04:08:49 AM 43.5769 -116.3861 326° Northwest 167 192 4,200 -100 Descending Salt Lake Center
Sun 04:09:49 AM 43.5953 -116.3269 67° East 169 194 4,300 -446 Climbing Salt Lake Center
Sun 04:10:50 AM 43.5792 -116.2703 111° Southeast 157 181 3,300 -984 Descending Salt Lake Center

Login

Don't have an account? Register now (free) for customized features, flight alerts, and more!